createdAt,value
2019-04-21T00:00:44.710Z,56.30
2019-04-21T00:03:18.111Z,56.30
2019-04-21T00:06:04.631Z,56.40
2019-04-21T00:08:37.537Z,56.40
2019-04-21T00:11:12.422Z,56.30
2019-04-21T00:13:27.962Z,56.30
2019-04-21T00:15:53.181Z,56.30
2019-04-21T00:18:46.873Z,56.20
2019-04-21T00:21:15.218Z,56.40
2019-04-21T00:23:55.357Z,56.10
2019-04-21T00:26:23.804Z,56.00
2019-04-21T00:29:05.071Z,56.20
2019-04-21T00:31:24.763Z,56.90
2019-04-21T00:33:42.654Z,56.20
2019-04-21T00:36:15.936Z,56.20
2019-04-21T00:39:06.876Z,56.30
2019-04-21T00:41:29.859Z,56.20
2019-04-21T00:43:55.733Z,56.20
2019-04-21T00:46:29.257Z,56.30
2019-04-21T00:49:00.368Z,56.30
2019-04-21T00:51:40.509Z,56.20
2019-04-21T00:54:13.104Z,56.10
2019-04-21T00:56:45.529Z,56.00
2019-04-21T00:59:05.706Z,56.10
2019-04-21T01:01:38.050Z,56.20
2019-04-21T01:04:09.939Z,56.00
2019-04-21T01:06:43.488Z,55.70
2019-04-21T01:09:11.761Z,55.30
2019-04-21T01:11:44.244Z,55.00
2019-04-21T01:14:17.907Z,54.60
2019-04-21T01:16:48.142Z,54.30
2019-04-21T01:19:10.949Z,54.40
2019-04-21T01:21:20.959Z,54.30
2019-04-21T01:23:50.775Z,54.20
2019-04-21T01:26:32.767Z,54.00
2019-04-21T01:29:05.432Z,53.60
2019-04-21T01:31:37.590Z,53.30
2019-04-21T01:34:15.047Z,53.40
2019-04-21T01:36:38.633Z,53.50
2019-04-21T01:39:13.483Z,53.60
2019-04-21T01:41:46.294Z,53.70
2019-04-21T01:44:22.724Z,53.90
2019-04-21T01:46:42.808Z,54.10
2019-04-21T01:49:07.928Z,53.90
2019-04-21T01:51:57.938Z,54.00
2019-04-21T01:54:23.795Z,53.90
2019-04-21T01:56:55.670Z,54.00
2019-04-21T01:59:29.583Z,54.00
2019-04-21T02:02:08.104Z,54.00
2019-04-21T02:04:38.394Z,54.20
2019-04-21T02:07:07.401Z,54.60
2019-04-21T02:09:37.978Z,54.60
2019-04-21T02:12:10.558Z,54.50
2019-04-21T02:14:46.130Z,54.40
2019-04-21T02:17:14.519Z,54.60
2019-04-21T02:19:37.606Z,54.80
2019-04-21T02:22:04.837Z,55.10
2019-04-21T02:24:53.378Z,54.80
2019-04-21T02:27:16.078Z,54.50
2019-04-21T02:29:48.687Z,54.00
2019-04-21T02:35:12.408Z,53.60
2019-04-21T02:39:57.395Z,53.60
2019-04-21T02:42:27.684Z,53.60
2019-04-21T02:45:03.857Z,53.50
2019-04-21T02:47:40.628Z,53.70
2019-04-21T02:52:31.951Z,54.20
2019-04-21T02:54:55.650Z,54.30
2019-04-21T03:02:40.667Z,54.60
2019-04-21T03:07:52.065Z,54.70
2019-04-21T03:10:18.357Z,55.00
2019-04-21T03:12:45.885Z,55.10
2019-04-21T03:17:48.764Z,55.20
2019-04-21T03:20:18.378Z,55.30
2019-04-21T03:22:51.269Z,55.40
2019-04-21T03:38:00.267Z,54.80
2019-04-21T03:42:47.997Z,54.70
2019-04-21T03:45:23.698Z,54.70
2019-04-21T03:52:53.273Z,54.80
2019-04-21T04:03:23.555Z,55.00
2019-04-21T04:06:01.165Z,55.00
2019-04-21T04:08:44.747Z,55.00
2019-04-21T04:11:12.314Z,55.20
2019-04-21T04:13:36.775Z,55.30
2019-04-21T04:16:05.734Z,55.20
2019-04-21T04:18:39.438Z,55.40
2019-04-21T04:21:10.195Z,55.50
2019-04-21T04:26:02.761Z,55.60
2019-04-21T04:28:43.918Z,55.60
2019-04-21T04:31:05.656Z,55.60
2019-04-21T04:36:31.636Z,55.70
2019-04-21T04:41:24.962Z,55.70
2019-04-21T04:43:39.063Z,55.70
2019-04-21T04:48:35.281Z,56.00
2019-04-21T04:53:48.855Z,56.30
2019-04-21T04:56:12.321Z,56.30
2019-04-21T04:59:10.779Z,56.40
2019-04-21T05:01:26.764Z,56.50
2019-04-21T05:06:37.269Z,56.80
2019-04-21T05:11:39.798Z,56.80
2019-04-21T05:13:58.085Z,57.10
2019-04-21T05:16:36.649Z,56.50
2019-04-21T05:21:30.188Z,57.40
2019-04-21T05:23:48.513Z,57.30
2019-04-21T05:26:09.899Z,57.20
2019-04-21T05:28:42.015Z,57.30
2019-04-21T05:31:19.876Z,57.20
2019-04-21T05:34:03.035Z,57.20
2019-04-21T05:36:34.335Z,57.10
2019-04-21T05:39:18.805Z,57.40
2019-04-21T05:41:45.261Z,57.80
2019-04-21T05:44:27.792Z,57.90
2019-04-21T05:47:11.226Z,58.20
2019-04-21T05:49:26.486Z,58.20
2019-04-21T05:51:58.355Z,58.00
2019-04-21T05:54:39.024Z,58.10
2019-04-21T05:57:05.904Z,58.60
2019-04-21T05:59:35.813Z,58.80
2019-04-21T06:02:13.942Z,58.20
2019-04-21T06:05:01.973Z,57.70
2019-04-21T06:07:13.958Z,57.80
2019-04-21T06:09:46.802Z,57.80
2019-04-21T06:12:08.661Z,58.00
2019-04-21T06:14:45.006Z,58.20
2019-04-21T06:17:19.333Z,57.70
2019-04-21T06:19:49.635Z,57.20
2019-04-21T06:22:07.671Z,56.80
2019-04-21T06:25:06.934Z,56.30
2019-04-21T06:27:19.276Z,56.20
2019-04-21T06:29:43.662Z,55.60
2019-04-21T06:32:30.368Z,55.50
2019-04-21T06:35:01.138Z,55.70
2019-04-21T06:37:39.070Z,56.30
2019-04-21T06:40:03.151Z,56.50
2019-04-21T06:42:14.767Z,56.60
2019-04-21T06:44:53.776Z,56.60
2019-04-21T06:47:25.650Z,56.70
2019-04-21T06:49:42.795Z,56.70
2019-04-21T06:52:42.314Z,56.50
2019-04-21T06:57:21.753Z,55.50
2019-04-21T06:59:45.243Z,54.80
2019-04-21T07:02:36.262Z,53.60
2019-04-21T07:07:18.683Z,51.60
2019-04-21T07:09:56.961Z,50.70
2019-04-21T07:12:19.007Z,51.20
2019-04-21T07:14:54.681Z,51.20
2019-04-21T07:17:24.324Z,51.20
2019-04-21T07:19:55.178Z,50.00
2019-04-21T07:22:24.501Z,50.20
2019-04-21T07:25:00.300Z,50.30
2019-04-21T07:29:58.324Z,50.60
2019-04-21T07:32:27.793Z,49.80
2019-04-21T07:34:57.830Z,49.70
2019-04-21T07:37:23.981Z,48.90
2019-04-21T07:39:57.337Z,48.90
2019-04-21T07:42:18.624Z,48.60
2019-04-21T07:44:55.326Z,48.60
2019-04-21T07:47:27.178Z,47.60
2019-04-21T07:50:00.619Z,47.10
2019-04-21T07:52:42.980Z,46.60
2019-04-21T07:55:22.083Z,47.30
2019-04-21T07:57:35.454Z,46.70
2019-04-21T08:02:43.754Z,45.80
2019-04-21T08:05:16.061Z,45.50
2019-04-21T08:10:13.962Z,46.00
2019-04-21T08:12:37.957Z,45.60
2019-04-21T08:15:15.844Z,45.90
2019-04-21T08:17:42.618Z,45.10
2019-04-21T08:20:13.513Z,44.00
2019-04-21T08:22:47.921Z,43.20
2019-04-21T08:25:14.908Z,43.50
2019-04-21T08:27:50.881Z,43.00
2019-04-21T08:30:14.336Z,43.10
2019-04-21T08:32:51.484Z,42.40
2019-04-21T08:37:43.313Z,42.50
2019-04-21T08:40:16.739Z,42.70
2019-04-21T08:42:49.088Z,41.90
2019-04-21T08:45:25.498Z,42.30
2019-04-21T08:47:45.811Z,41.50
2019-04-21T08:50:15.139Z,41.20
2019-04-21T08:52:50.673Z,41.50
2019-04-21T08:55:22.554Z,41.60
2019-04-21T08:58:00.377Z,41.80
2019-04-21T09:00:26.373Z,41.50
2019-04-21T09:03:11.730Z,40.50
2019-04-21T09:05:37.845Z,39.80
2019-04-21T09:08:15.268Z,38.20
2019-04-21T09:10:39.922Z,38.80
2019-04-21T09:13:04.993Z,38.50
2019-04-21T09:15:34.882Z,39.30
2019-04-21T09:18:03.049Z,37.80
2019-04-21T09:20:46.163Z,39.20
2019-04-21T09:23:06.714Z,39.60
2019-04-21T09:28:11.207Z,39.30
2019-04-21T09:30:24.072Z,39.70
2019-04-21T09:32:56.100Z,39.80
2019-04-21T09:35:24.124Z,39.80
2019-04-21T09:37:58.849Z,39.20
2019-04-21T09:40:30.179Z,39.00
2019-04-21T09:42:59.510Z,39.40
2019-04-21T09:45:43.614Z,38.60
2019-04-21T09:48:17.051Z,38.50
2019-04-21T09:50:43.389Z,37.80
2019-04-21T09:53:20.915Z,39.00
2019-04-21T09:55:50.543Z,38.20
2019-04-21T09:58:21.728Z,37.80
2019-04-21T10:00:53.800Z,38.20
2019-04-21T10:03:16.310Z,37.80
2019-04-21T10:05:45.215Z,38.20
2019-04-21T10:08:14.509Z,37.70
2019-04-21T10:10:44.453Z,38.20
2019-04-21T10:13:13.308Z,38.80
2019-04-21T10:15:44.060Z,38.90
2019-04-21T10:18:15.132Z,38.10
2019-04-21T10:20:44.842Z,38.00
2019-04-21T10:23:13.696Z,38.00
2019-04-21T10:25:42.858Z,38.40
2019-04-21T10:28:12.789Z,38.40
2019-04-21T10:30:42.626Z,39.40
2019-04-21T10:33:12.530Z,39.20
2019-04-21T10:35:41.478Z,38.40
2019-04-21T10:38:20.500Z,38.50
2019-04-21T10:40:41.419Z,39.40
2019-04-21T10:43:12.404Z,39.00
2019-04-21T10:45:41.081Z,39.60
2019-04-21T10:48:10.804Z,39.50
2019-04-21T10:50:41.064Z,39.20
2019-04-21T10:53:18.690Z,39.40
2019-04-21T10:56:01.483Z,39.10
2019-04-21T10:58:22.688Z,38.30
2019-04-21T11:00:54.152Z,39.50
2019-04-21T11:03:25.118Z,38.00
2019-04-21T11:05:58.904Z,38.60
2019-04-21T11:08:32.580Z,38.40
2019-04-21T11:10:58.342Z,38.70
2019-04-21T11:13:28.317Z,37.90
2019-04-21T11:15:57.303Z,39.00
2019-04-21T11:18:26.080Z,39.60
2019-04-21T11:20:55.258Z,39.70
2019-04-21T11:23:25.027Z,40.00
2019-04-21T11:25:53.979Z,39.40
2019-04-21T11:28:22.985Z,39.70
2019-04-21T11:30:53.088Z,39.70
2019-04-21T11:33:22.838Z,40.30
2019-04-21T11:35:53.066Z,40.20
2019-04-21T11:38:57.081Z,40.20
2019-04-21T11:41:11.818Z,40.40
2019-04-21T11:43:41.345Z,40.90
2019-04-21T11:46:10.833Z,40.20
2019-04-21T11:48:40.009Z,40.30
2019-04-21T11:51:09.028Z,40.70
2019-04-21T11:53:39.116Z,40.50
2019-04-21T11:56:09.013Z,40.70
2019-04-21T11:58:37.981Z,40.20
2019-04-21T12:01:07.683Z,40.10
2019-04-21T12:03:37.745Z,39.80
2019-04-21T12:06:06.668Z,39.60
2019-04-21T12:08:42.281Z,39.20
2019-04-21T12:11:07.266Z,39.20
2019-04-21T12:13:36.255Z,38.60
2019-04-21T12:16:05.463Z,39.00
2019-04-21T12:18:34.353Z,39.20
2019-04-21T12:21:03.326Z,39.50
2019-04-21T12:23:32.373Z,39.70
2019-04-21T12:26:01.496Z,39.50
2019-04-21T12:28:30.483Z,39.50
2019-04-21T12:31:00.184Z,39.80
2019-04-21T12:33:34.166Z,40.20
2019-04-21T12:36:04.007Z,40.40
2019-04-21T12:38:42.684Z,40.50
2019-04-21T12:41:04.540Z,41.10
2019-04-21T12:43:34.778Z,41.40
2019-04-21T12:46:04.300Z,40.90
2019-04-21T12:48:33.818Z,40.20
2019-04-21T12:51:03.879Z,39.70
2019-04-21T12:53:33.967Z,39.80
2019-04-21T12:56:02.843Z,39.20
2019-04-21T12:58:31.584Z,38.80
2019-04-21T13:01:00.961Z,38.00
2019-04-21T13:03:30.381Z,38.10
2019-04-21T13:05:59.185Z,37.40
2019-04-21T13:08:29.195Z,38.00
2019-04-21T13:10:58.331Z,38.10
2019-04-21T13:13:28.157Z,37.10
2019-04-21T13:15:57.712Z,37.20
2019-04-21T13:18:27.050Z,37.30
2019-04-21T13:20:56.097Z,37.10
2019-04-21T13:23:24.975Z,36.90
2019-04-21T13:25:54.120Z,37.10
2019-04-21T13:28:23.037Z,35.70
2019-04-21T13:30:51.718Z,35.90
2019-04-21T13:33:20.970Z,34.20
2019-04-21T13:35:50.893Z,32.20
2019-04-21T13:38:31.036Z,33.20
2019-04-21T13:41:11.917Z,32.20
2019-04-21T13:43:25.313Z,32.30
2019-04-21T13:45:54.150Z,32.50
2019-04-21T13:48:24.278Z,31.50
2019-04-21T13:50:53.501Z,31.80
2019-04-21T13:53:22.759Z,31.90
2019-04-21T13:55:52.897Z,31.60
2019-04-21T13:58:22.126Z,31.80
2019-04-21T14:00:52.377Z,31.50
2019-04-21T14:03:23.429Z,31.40
2019-04-21T14:05:51.785Z,32.20
2019-04-21T14:08:21.031Z,32.10
2019-04-21T14:10:51.402Z,31.30
2019-04-21T14:13:20.472Z,31.90
2019-04-21T14:15:51.632Z,31.70
2019-04-21T14:18:20.625Z,31.40
2019-04-21T14:20:49.478Z,31.00
2019-04-21T14:23:28.636Z,30.20
2019-04-21T14:25:49.978Z,29.10
2019-04-21T14:28:19.899Z,29.60
2019-04-21T14:30:50.337Z,29.60
2019-04-21T14:33:20.469Z,29.50
2019-04-21T14:35:50.629Z,29.40
2019-04-21T14:38:20.584Z,29.10
2019-04-21T14:40:50.352Z,29.30
2019-04-21T14:43:20.422Z,29.70
2019-04-21T14:45:52.615Z,29.10
2019-04-21T14:48:39.408Z,29.70
2019-04-21T14:51:11.159Z,29.30
2019-04-21T14:54:01.740Z,29.70
2019-04-21T14:56:31.301Z,29.30
2019-04-21T14:59:01.324Z,29.50
2019-04-21T15:01:31.541Z,29.90
2019-04-21T15:04:01.550Z,29.60
2019-04-21T15:06:31.552Z,29.70
2019-04-21T15:09:00.878Z,29.90
2019-04-21T15:11:29.919Z,30.40
2019-04-21T15:13:59.783Z,30.80
2019-04-21T15:16:29.095Z,31.10
2019-04-21T15:18:58.905Z,31.30
2019-04-21T15:21:29.014Z,31.40
2019-04-21T15:23:58.173Z,31.60
2019-04-21T15:26:28.334Z,32.00
2019-04-21T15:28:57.223Z,32.20
2019-04-21T15:31:30.247Z,32.60
2019-04-21T15:33:57.076Z,32.90
2019-04-21T15:36:27.109Z,32.80
2019-04-21T15:38:56.178Z,33.00
2019-04-21T15:41:24.997Z,33.60
2019-04-21T15:43:54.378Z,33.90
2019-04-21T15:46:24.728Z,34.30
2019-04-21T15:48:55.030Z,34.50
2019-04-21T15:51:23.988Z,36.30
2019-04-21T15:53:52.965Z,38.90
2019-04-21T15:56:26.860Z,40.70
2019-04-21T15:59:01.016Z,41.80
2019-04-21T16:01:40.778Z,41.70
2019-04-21T16:04:10.691Z,41.70
2019-04-21T16:06:39.731Z,42.70
2019-04-21T16:09:16.136Z,43.30
2019-04-21T16:11:40.180Z,43.90
2019-04-21T16:14:10.165Z,45.10
2019-04-21T16:16:39.278Z,45.90
2019-04-21T16:19:08.307Z,46.20
2019-04-21T16:21:40.599Z,46.90
2019-04-21T16:24:08.735Z,46.40
2019-04-21T16:26:38.429Z,46.40
2019-04-21T16:29:07.230Z,46.70
2019-04-21T16:31:36.365Z,47.00
2019-04-21T16:34:05.228Z,47.00
2019-04-21T16:36:33.972Z,47.10
2019-04-21T16:39:02.744Z,47.20
2019-04-21T16:41:32.070Z,47.30
2019-04-21T16:44:01.018Z,47.40
2019-04-21T16:46:29.767Z,47.40
2019-04-21T16:48:59.908Z,47.60
2019-04-21T16:51:28.830Z,48.00
2019-04-21T16:53:59.872Z,48.20
2019-04-21T16:56:31.130Z,48.20
2019-04-21T16:59:02.807Z,48.00
2019-04-21T17:01:32.426Z,48.30
2019-04-21T17:04:02.346Z,48.90
2019-04-21T17:06:31.423Z,49.30
2019-04-21T17:09:00.958Z,49.40
2019-04-21T17:11:34.704Z,49.60
2019-04-21T17:14:00.665Z,49.70
2019-04-21T17:17:00.323Z,49.80
2019-04-21T17:19:12.786Z,49.80
2019-04-21T17:21:30.723Z,49.60
2019-04-21T17:24:02.001Z,49.50
2019-04-21T17:26:31.369Z,49.40
2019-04-21T17:29:02.549Z,49.60
2019-04-21T17:31:31.405Z,49.60
2019-04-21T17:34:09.519Z,49.70
2019-04-21T17:36:31.038Z,49.60
2019-04-21T17:39:00.171Z,49.70
2019-04-21T17:41:36.427Z,49.70
2019-04-21T17:44:00.376Z,49.80
2019-04-21T17:46:38.624Z,50.00
2019-04-21T17:49:01.016Z,50.00
2019-04-21T17:51:55.117Z,50.50
2019-04-21T17:54:32.221Z,49.70
2019-04-21T17:57:16.246Z,49.70
2019-04-21T18:02:23.518Z,50.70
2019-04-21T18:04:49.398Z,50.90
2019-04-21T18:07:29.064Z,50.90
2019-04-21T18:10:03.391Z,51.00
2019-04-21T18:12:24.950Z,51.10
2019-04-21T18:14:53.090Z,51.00
2019-04-21T18:17:14.055Z,51.00
2019-04-21T18:19:46.998Z,51.10
2019-04-21T18:22:37.104Z,51.20
2019-04-21T18:25:07.060Z,51.30
2019-04-21T18:27:34.439Z,51.20
2019-04-21T18:30:06.468Z,51.20
2019-04-21T18:32:39.176Z,51.20
2019-04-21T18:35:17.073Z,51.30
2019-04-21T18:38:08.368Z,51.40
2019-04-21T18:40:34.831Z,51.80
2019-04-21T18:43:38.360Z,51.70
2019-04-21T18:46:04.807Z,51.80
2019-04-21T18:48:31.541Z,51.90
2019-04-21T18:51:04.649Z,51.90
2019-04-21T18:53:46.197Z,51.90
2019-04-21T18:56:05.672Z,51.80
2019-04-21T18:58:30.877Z,51.80
2019-04-21T19:01:07.545Z,51.80
2019-04-21T19:03:38.943Z,51.50
2019-04-21T19:06:08.782Z,52.30
2019-04-21T19:08:53.400Z,52.50
2019-04-21T19:11:18.883Z,52.80
2019-04-21T19:14:31.695Z,52.90
2019-04-21T19:19:38.258Z,53.10
2019-04-21T19:21:42.393Z,53.10
2019-04-21T19:24:18.563Z,53.40
2019-04-21T19:29:19.697Z,53.50
2019-04-21T19:31:46.311Z,53.70
2019-04-21T19:34:07.192Z,53.60
2019-04-21T19:36:28.938Z,54.20
2019-04-21T19:39:06.502Z,54.00
2019-04-21T19:41:41.143Z,54.40
2019-04-21T19:44:14.256Z,54.10
2019-04-21T19:46:43.532Z,53.90
2019-04-21T19:49:22.739Z,54.20
2019-04-21T19:51:40.564Z,54.50
2019-04-21T19:54:09.345Z,54.70
2019-04-21T19:56:30.250Z,54.70
2019-04-21T19:58:59.132Z,54.80
2019-04-21T20:01:27.977Z,54.80
2019-04-21T20:04:00.530Z,55.00
2019-04-21T20:06:44.007Z,55.00
2019-04-21T20:09:19.031Z,55.10
2019-04-21T20:11:42.628Z,55.20
2019-04-21T20:16:44.175Z,55.50
2019-04-21T20:19:05.954Z,55.40
2019-04-21T20:21:32.821Z,55.40
2019-04-21T20:24:07.511Z,55.30
2019-04-21T20:26:39.099Z,55.20
2019-04-21T20:29:20.812Z,55.10
2019-04-21T20:31:46.970Z,55.10
2019-04-21T20:34:28.371Z,54.90
2019-04-21T20:36:56.914Z,54.90
2019-04-21T20:39:12.887Z,54.80
2019-04-21T20:41:49.630Z,54.80
2019-04-21T20:44:28.206Z,54.70
2019-04-21T20:46:54.530Z,55.10
2019-04-21T20:49:19.227Z,55.00
2019-04-21T20:52:01.712Z,54.90
2019-04-21T20:54:25.704Z,54.90
2019-04-21T20:57:00.464Z,54.80
2019-04-21T20:59:25.329Z,54.90
2019-04-21T21:01:55.176Z,55.00
2019-04-21T21:04:22.996Z,54.80
2019-04-21T21:07:01.419Z,54.70
2019-04-21T21:09:25.637Z,55.40
2019-04-21T21:12:15.031Z,54.70
2019-04-21T21:14:27.970Z,54.60
2019-04-21T21:17:03.269Z,54.60
2019-04-21T21:19:35.139Z,54.60
2019-04-21T21:21:56.369Z,54.70
2019-04-21T21:24:36.551Z,54.70
2019-04-21T21:26:58.092Z,54.70
2019-04-21T21:32:08.493Z,54.70
2019-04-21T21:34:32.993Z,54.70
2019-04-21T21:37:15.895Z,54.60
2019-04-21T21:39:40.421Z,54.60
2019-04-21T21:41:50.990Z,54.70
2019-04-21T21:44:21.261Z,54.80
2019-04-21T21:47:03.721Z,54.80
2019-04-21T21:49:34.911Z,54.70
2019-04-21T21:52:01.973Z,54.70
2019-04-21T21:54:19.995Z,54.70
2019-04-21T21:56:48.695Z,54.70
2019-04-21T21:59:22.814Z,55.30
2019-04-21T22:01:52.233Z,55.20
2019-04-21T22:04:24.829Z,55.00
2019-04-21T22:06:57.558Z,55.00
2019-04-21T22:09:19.476Z,55.60
2019-04-21T22:11:53.561Z,54.90
2019-04-21T22:14:25.836Z,55.00
2019-04-21T22:17:07.685Z,55.30
2019-04-21T22:19:41.716Z,55.10
2019-04-21T22:22:09.738Z,55.10
2019-04-21T22:24:38.895Z,55.10
2019-04-21T22:26:52.421Z,54.90
2019-04-21T22:29:21.458Z,55.00
2019-04-21T22:31:52.761Z,55.10
2019-04-21T22:34:27.700Z,55.10
2019-04-21T22:37:01.287Z,55.00
2019-04-21T22:39:43.669Z,55.00
2019-04-21T22:42:01.900Z,55.30
2019-04-21T22:44:22.756Z,55.30
2019-04-21T22:47:01.461Z,56.00
2019-04-21T22:49:23.741Z,56.10
2019-04-21T22:51:53.780Z,57.20
2019-04-21T22:54:29.614Z,57.50
2019-04-21T22:57:01.598Z,57.80
2019-04-21T22:59:24.910Z,57.70
2019-04-21T23:01:55.776Z,57.80
2019-04-21T23:04:32.611Z,57.70
2019-04-21T23:07:00.054Z,57.90
2019-04-21T23:09:26.662Z,57.80
2019-04-21T23:11:56.628Z,57.90
2019-04-21T23:14:25.904Z,58.10
2019-04-21T23:17:04.432Z,58.00
2019-04-21T23:19:38.872Z,57.90
2019-04-21T23:22:14.620Z,57.80
2019-04-21T23:24:45.540Z,57.90
2019-04-21T23:27:11.788Z,57.70
2019-04-21T23:29:52.452Z,57.90
2019-04-21T23:32:13.128Z,57.60
2019-04-21T23:34:33.776Z,57.50
2019-04-21T23:37:06.606Z,57.70
2019-04-21T23:39:31.970Z,58.30
2019-04-21T23:42:02.384Z,58.20
2019-04-21T23:44:32.931Z,58.60
2019-04-21T23:47:05.339Z,58.60
2019-04-21T23:49:43.250Z,58.80
2019-04-21T23:52:06.897Z,59.30
2019-04-21T23:54:33.411Z,59.70
2019-04-21T23:57:10.995Z,59.50
2019-04-21T23:59:40.858Z,60.40
